createdAt,value
2018-06-29T00:00:47.150Z,1.72
2018-06-29T00:03:15.635Z,2.60
2018-06-29T00:05:44.044Z,6.85
2018-06-29T00:08:12.479Z,4.37
2018-06-29T00:10:40.904Z,5.03
2018-06-29T00:13:09.300Z,7.53
2018-06-29T00:15:37.771Z,5.27
2018-06-29T00:18:06.196Z,2.80
2018-06-29T00:20:34.631Z,3.02
2018-06-29T00:23:03.040Z,3.30
2018-06-29T00:25:31.499Z,6.47
2018-06-29T00:27:59.944Z,2.87
2018-06-29T00:30:28.366Z,5.05
2018-06-29T00:32:56.760Z,3.02
2018-06-29T00:35:25.196Z,2.10
2018-06-29T00:37:53.760Z,4.73
2018-06-29T00:40:22.149Z,3.50
2018-06-29T00:42:50.522Z,2.83
2018-06-29T00:45:18.974Z,2.20
2018-06-29T00:47:47.385Z,3.22
2018-06-29T00:50:15.806Z,3.47
2018-06-29T00:52:44.267Z,5.70
2018-06-29T00:55:12.754Z,3.13
2018-06-29T00:57:41.197Z,2.30
2018-06-29T01:00:09.612Z,2.10
2018-06-29T01:02:38.179Z,4.20
2018-06-29T01:05:06.620Z,3.98
2018-06-29T01:07:35.068Z,3.10
2018-06-29T01:10:03.551Z,3.90
2018-06-29T01:12:31.689Z,2.92
2018-06-29T01:15:00.104Z,3.80
2018-06-29T01:17:28.603Z,2.90
2018-06-29T01:19:57.005Z,2.02
2018-06-29T01:22:25.475Z,2.95
2018-06-29T01:24:53.920Z,5.50
2018-06-29T01:27:21.991Z,4.30
2018-06-29T01:29:50.373Z,3.00
2018-06-29T01:32:18.461Z,2.60
2018-06-29T01:34:46.852Z,3.60
2018-06-29T01:37:15.264Z,5.17
2018-06-29T01:39:43.696Z,3.17
2018-06-29T01:42:12.099Z,3.50
2018-06-29T01:44:40.497Z,4.45
2018-06-29T01:47:08.981Z,2.87
2018-06-29T01:49:37.411Z,3.80
2018-06-29T01:52:06.048Z,2.65
2018-06-29T01:54:34.486Z,2.60
2018-06-29T01:57:02.911Z,3.40
2018-06-29T01:59:31.374Z,2.50
2018-06-29T02:01:59.794Z,3.15
2018-06-29T02:04:28.193Z,2.42
2018-06-29T02:06:56.582Z,2.10
2018-06-29T02:09:24.978Z,3.10
2018-06-29T02:11:53.409Z,2.30
2018-06-29T02:14:21.812Z,3.30
2018-06-29T02:16:50.235Z,2.33
2018-06-29T02:19:18.623Z,3.30
2018-06-29T02:21:47.072Z,5.45
2018-06-29T02:24:15.454Z,4.97
2018-06-29T02:26:43.948Z,3.53
2018-06-29T02:29:12.386Z,2.20
2018-06-29T02:31:40.801Z,3.42
2018-06-29T02:34:09.248Z,2.92
2018-06-29T02:36:37.656Z,4.75
2018-06-29T02:39:09.597Z,2.50
2018-06-29T02:41:37.999Z,2.50
2018-06-29T02:44:06.396Z,2.15
2018-06-29T02:46:34.810Z,2.62
2018-06-29T02:49:03.303Z,2.80
2018-06-29T02:51:31.727Z,3.33
2018-06-29T02:54:00.164Z,5.75
2018-06-29T02:56:28.608Z,3.37
2018-06-29T02:58:56.988Z,2.10
2018-06-29T03:01:25.371Z,3.47
2018-06-29T03:03:54.030Z,2.43
2018-06-29T03:06:22.490Z,2.20
2018-06-29T03:08:50.907Z,2.20
2018-06-29T03:11:19.344Z,3.80
2018-06-29T03:13:47.729Z,4.07
2018-06-29T03:16:16.143Z,2.70
2018-06-29T03:18:44.578Z,4.17
2018-06-29T03:21:12.984Z,3.37
2018-06-29T03:23:41.403Z,3.87
2018-06-29T03:26:09.965Z,4.33
2018-06-29T03:28:38.447Z,4.40
2018-06-29T03:31:06.903Z,2.62
2018-06-29T03:33:35.317Z,3.80
2018-06-29T03:36:03.726Z,4.60
2018-06-29T03:38:32.122Z,2.40
2018-06-29T03:41:00.557Z,3.20
2018-06-29T03:43:28.985Z,3.60
2018-06-29T03:45:57.436Z,6.45
2018-06-29T03:48:25.549Z,3.60
2018-06-29T03:50:53.968Z,4.20
2018-06-29T03:53:22.373Z,3.75
2018-06-29T03:55:50.531Z,2.62
2018-06-29T03:58:18.936Z,5.10
2018-06-29T04:00:47.330Z,4.28
2018-06-29T04:03:15.502Z,4.58
2018-06-29T04:05:43.996Z,5.90
2018-06-29T04:08:12.472Z,4.22
2018-06-29T04:10:40.905Z,3.35
2018-06-29T04:13:09.004Z,4.95
2018-06-29T04:15:40.299Z,4.83
2018-06-29T04:18:08.758Z,3.70
2018-06-29T04:20:37.354Z,2.87
2018-06-29T04:23:05.855Z,3.07
2018-06-29T04:25:34.259Z,5.63
2018-06-29T04:28:02.675Z,2.12
2018-06-29T04:30:31.077Z,3.00
2018-06-29T04:32:59.488Z,5.35
2018-06-29T04:35:27.953Z,3.92
2018-06-29T04:37:56.371Z,4.80
2018-06-29T04:40:24.762Z,7.50
2018-06-29T04:42:53.222Z,2.97
2018-06-29T04:45:21.601Z,3.55
2018-06-29T04:47:50.006Z,2.30
2018-06-29T04:50:18.410Z,5.12
2018-06-29T04:52:46.797Z,5.58
2018-06-29T04:55:15.158Z,2.60
2018-06-29T04:57:43.537Z,5.05
2018-06-29T05:00:11.943Z,6.60
2018-06-29T05:02:40.391Z,4.55
2018-06-29T05:05:08.792Z,3.47
2018-06-29T05:07:37.179Z,3.90
2018-06-29T05:10:05.365Z,3.47
2018-06-29T05:12:33.771Z,3.87
2018-06-29T05:15:02.164Z,6.37
2018-06-29T05:17:30.588Z,2.40
2018-06-29T05:19:59.001Z,3.75
2018-06-29T05:22:27.379Z,2.57
2018-06-29T05:24:55.802Z,2.60
2018-06-29T05:27:24.216Z,5.50
2018-06-29T05:29:52.330Z,4.60
2018-06-29T05:32:20.751Z,7.25
2018-06-29T05:34:49.232Z,3.02
2018-06-29T05:37:17.703Z,3.47
2018-06-29T05:41:13.475Z,9.83
2018-06-29T05:43:41.853Z,3.75
2018-06-29T05:46:10.332Z,4.30
2018-06-29T05:48:38.733Z,5.92
2018-06-29T05:51:07.137Z,3.80
2018-06-29T05:53:35.590Z,3.65
2018-06-29T05:56:04.016Z,4.30
2018-06-29T05:58:32.535Z,7.90
2018-06-29T06:01:00.938Z,4.00
2018-06-29T06:03:29.366Z,7.10
2018-06-29T06:05:57.737Z,4.50
2018-06-29T06:08:26.127Z,5.08
2018-06-29T06:10:54.524Z,3.70
2018-06-29T06:13:22.927Z,5.50
2018-06-29T06:15:51.323Z,5.22
2018-06-29T06:18:19.717Z,4.22
2018-06-29T06:20:48.105Z,3.65
2018-06-29T06:23:19.479Z,5.37
2018-06-29T06:25:47.756Z,4.50
2018-06-29T06:28:16.383Z,4.20
2018-06-29T06:30:44.843Z,4.92
2018-06-29T06:33:13.381Z,5.90
2018-06-29T06:35:42.067Z,5.53
2018-06-29T06:38:10.649Z,5.08
2018-06-29T06:40:39.025Z,5.50
2018-06-29T06:43:07.522Z,3.98
2018-06-29T06:45:36.077Z,7.17
2018-06-29T06:48:04.513Z,4.87
2018-06-29T06:50:32.929Z,5.87
2018-06-29T06:53:01.315Z,5.72
2018-06-29T06:55:29.893Z,5.65
2018-06-29T06:57:58.293Z,6.78
2018-06-29T07:00:26.723Z,6.15
2018-06-29T07:02:55.108Z,4.45
2018-06-29T07:05:23.485Z,4.80
2018-06-29T07:07:52.051Z,4.33
2018-06-29T07:10:20.436Z,7.20
2018-06-29T07:12:48.863Z,7.33
2018-06-29T07:15:17.271Z,4.08
2018-06-29T07:17:45.694Z,3.95
2018-06-29T07:20:14.164Z,7.72
2018-06-29T07:22:42.623Z,5.15
2018-06-29T07:25:11.111Z,3.90
2018-06-29T07:27:39.499Z,3.77
2018-06-29T07:30:08.754Z,6.50
2018-06-29T07:32:37.182Z,5.75
2018-06-29T07:35:05.733Z,8.00
2018-06-29T07:37:33.862Z,7.33
2018-06-29T07:40:02.287Z,6.95
2018-06-29T07:42:30.380Z,6.47
2018-06-29T07:44:58.775Z,4.05
2018-06-29T07:47:28.012Z,5.67
2018-06-29T07:49:56.382Z,4.78
2018-06-29T07:52:24.776Z,3.83
2018-06-29T07:54:53.139Z,3.83
2018-06-29T07:57:21.734Z,7.53
2018-06-29T07:59:50.122Z,6.10
2018-06-29T08:02:18.530Z,3.62
2018-06-29T08:04:46.902Z,4.87
2018-06-29T08:07:15.305Z,6.17
2018-06-29T08:09:43.679Z,7.97
2018-06-29T08:12:12.083Z,5.50
2018-06-29T08:14:40.444Z,7.25
2018-06-29T08:17:08.847Z,3.55
2018-06-29T08:19:37.228Z,6.00
2018-06-29T08:22:05.584Z,3.77
2018-06-29T08:24:34.028Z,2.60
2018-06-29T08:27:02.428Z,3.10
2018-06-29T08:29:30.851Z,4.25
2018-06-29T08:31:59.269Z,6.10
2018-06-29T08:34:27.630Z,3.30
2018-06-29T08:36:56.084Z,5.22
2018-06-29T08:39:24.479Z,4.30
2018-06-29T08:41:52.927Z,4.33
2018-06-29T08:44:21.284Z,8.18
2018-06-29T08:46:49.739Z,6.03
2018-06-29T08:51:57.841Z,4.25
2018-06-29T08:54:26.277Z,6.33
2018-06-29T08:56:54.718Z,5.62
2018-06-29T08:59:23.111Z,3.98
2018-06-29T09:01:51.452Z,4.58
2018-06-29T09:04:19.878Z,10.28
2018-06-29T09:06:48.262Z,5.75
2018-06-29T09:09:16.668Z,3.40
2018-06-29T09:11:45.085Z,3.37
2018-06-29T09:14:13.483Z,17.82
2018-06-29T09:16:41.903Z,4.95
2018-06-29T09:19:10.670Z,2.70
2018-06-29T09:21:39.020Z,3.40
2018-06-29T09:24:07.132Z,5.70
2018-06-29T09:26:35.596Z,3.20
2018-06-29T09:29:04.050Z,3.17
2018-06-29T09:31:32.459Z,3.40
2018-06-29T09:34:00.910Z,3.80
2018-06-29T09:36:29.381Z,6.87
2018-06-29T09:38:57.787Z,4.30
2018-06-29T09:41:26.214Z,2.20
2018-06-29T09:43:54.577Z,3.05
2018-06-29T09:46:23.040Z,3.30
2018-06-29T09:48:51.396Z,2.80
2018-06-29T09:51:19.812Z,2.10
2018-06-29T09:53:48.156Z,2.50
2018-06-29T09:56:16.573Z,2.37
2018-06-29T09:58:44.940Z,3.90
2018-06-29T10:01:13.389Z,1.90
2018-06-29T10:03:41.836Z,3.67
2018-06-29T10:06:10.231Z,2.93
2018-06-29T10:08:38.318Z,3.80
2018-06-29T10:11:06.447Z,4.10
2018-06-29T10:13:34.868Z,2.60
2018-06-29T10:16:03.297Z,2.52
2018-06-29T10:18:31.710Z,1.80
2018-06-29T10:21:00.159Z,3.58
2018-06-29T10:23:28.581Z,2.60
2018-06-29T10:25:56.666Z,4.12
2018-06-29T10:28:25.045Z,3.55
2018-06-29T10:30:53.485Z,4.30
2018-06-29T10:33:21.890Z,2.30
2018-06-29T10:35:50.335Z,6.72
2018-06-29T10:38:18.720Z,2.08
2018-06-29T10:40:47.197Z,2.83
2018-06-29T10:43:15.570Z,1.80
2018-06-29T10:45:43.984Z,3.15
2018-06-29T10:48:12.384Z,4.20
2018-06-29T10:50:40.807Z,3.50
2018-06-29T10:53:09.188Z,4.28
2018-06-29T10:55:37.609Z,4.83
2018-06-29T10:58:06.013Z,1.67
2018-06-29T11:00:34.429Z,7.80
2018-06-29T11:03:02.831Z,1.50
2018-06-29T11:05:31.276Z,2.80
2018-06-29T11:07:59.680Z,2.10
2018-06-29T11:10:28.081Z,2.92
2018-06-29T11:12:56.139Z,4.22
2018-06-29T11:15:24.525Z,4.00
2018-06-29T11:17:55.954Z,1.90
2018-06-29T11:20:24.370Z,1.65
2018-06-29T11:22:52.798Z,3.10
2018-06-29T11:25:21.252Z,3.58
2018-06-29T11:27:49.642Z,4.50
2018-06-29T11:30:18.209Z,3.05
2018-06-29T11:32:46.573Z,1.92
2018-06-29T11:35:14.943Z,3.30
2018-06-29T11:37:43.360Z,1.80
2018-06-29T11:40:11.764Z,4.00
2018-06-29T11:42:40.303Z,2.30
2018-06-29T11:45:08.662Z,1.47
2018-06-29T11:47:37.121Z,1.80
2018-06-29T11:50:05.799Z,1.50
2018-06-29T11:52:34.494Z,1.40
2018-06-29T11:55:02.869Z,2.70
2018-06-29T11:57:31.323Z,2.50
2018-06-29T11:59:59.670Z,2.85
2018-06-29T12:02:28.120Z,3.80
2018-06-29T12:04:56.545Z,3.10
2018-06-29T12:07:24.940Z,2.52
2018-06-29T12:09:53.383Z,10.90
2018-06-29T12:12:21.853Z,7.67
2018-06-29T12:14:50.363Z,4.12
2018-06-29T12:17:18.711Z,3.40
2018-06-29T12:19:47.155Z,3.90
2018-06-29T12:22:15.565Z,2.50
2018-06-29T12:24:43.736Z,3.17
2018-06-29T12:27:11.849Z,5.70
2018-06-29T12:29:40.260Z,2.70
2018-06-29T12:32:08.680Z,2.17
2018-06-29T12:34:37.113Z,3.42
2018-06-29T12:37:05.518Z,4.30
2018-06-29T12:39:33.989Z,1.85
2018-06-29T12:42:02.405Z,4.22
2018-06-29T12:44:30.817Z,3.85
2018-06-29T12:46:59.225Z,2.00
2018-06-29T12:49:27.643Z,2.12
2018-06-29T12:51:56.432Z,3.30
2018-06-29T12:54:24.459Z,2.20
2018-06-29T12:56:52.917Z,6.77
2018-06-29T12:59:21.322Z,2.70
2018-06-29T13:01:49.714Z,3.00
2018-06-29T13:04:18.137Z,4.50
2018-06-29T13:06:46.578Z,2.20
2018-06-29T13:09:14.682Z,7.37
2018-06-29T13:11:43.175Z,3.85
2018-06-29T13:14:11.651Z,4.42
2018-06-29T13:16:40.056Z,2.45
2018-06-29T13:19:08.558Z,5.33
2018-06-29T13:21:36.961Z,1.70
2018-06-29T13:24:05.453Z,2.20
2018-06-29T13:26:33.864Z,3.70
2018-06-29T13:29:02.247Z,14.07
2018-06-29T13:31:30.656Z,4.33
2018-06-29T13:33:59.088Z,4.30
2018-06-29T13:36:27.518Z,1.30
2018-06-29T13:38:55.935Z,1.90
2018-06-29T13:41:24.353Z,5.70
2018-06-29T13:43:52.839Z,2.52
2018-06-29T13:46:21.233Z,2.27
2018-06-29T13:48:49.311Z,2.20
2018-06-29T13:51:17.726Z,3.00
2018-06-29T13:53:46.104Z,4.70
2018-06-29T13:56:14.867Z,3.50
2018-06-29T13:58:43.277Z,3.35
2018-06-29T14:01:11.690Z,2.90
2018-06-29T14:03:40.131Z,2.87
2018-06-29T14:06:08.715Z,2.77
2018-06-29T14:08:37.135Z,1.92
2018-06-29T14:11:05.506Z,2.67
2018-06-29T14:13:33.908Z,9.50
2018-06-29T14:16:02.331Z,2.23
2018-06-29T14:18:30.739Z,6.53
2018-06-29T14:20:59.122Z,1.90
2018-06-29T14:23:27.559Z,2.90
2018-06-29T14:25:55.958Z,2.45
2018-06-29T14:28:24.365Z,6.10
2018-06-29T14:30:52.759Z,5.30
2018-06-29T14:33:21.220Z,3.67
2018-06-29T14:35:49.629Z,2.40
2018-06-29T14:38:18.037Z,5.27
2018-06-29T14:40:46.431Z,2.17
2018-06-29T14:43:14.831Z,2.90
2018-06-29T14:45:43.332Z,2.62
2018-06-29T14:48:11.728Z,4.80
2018-06-29T14:50:40.121Z,4.90
2018-06-29T14:53:08.549Z,2.45
2018-06-29T14:55:37.012Z,4.42
2018-06-29T14:58:05.770Z,3.65
2018-06-29T15:00:34.328Z,1.80
2018-06-29T15:03:02.749Z,4.30
2018-06-29T15:05:30.838Z,2.65
2018-06-29T15:07:59.239Z,3.90
2018-06-29T15:10:27.659Z,1.70
2018-06-29T15:12:56.042Z,4.90
2018-06-29T15:15:24.487Z,4.10
2018-06-29T15:17:52.891Z,3.33
2018-06-29T15:20:21.265Z,5.50
2018-06-29T15:22:49.639Z,5.20
2018-06-29T15:25:18.218Z,3.40
2018-06-29T15:27:46.609Z,2.90
2018-06-29T15:30:15.021Z,1.77
2018-06-29T15:32:43.455Z,2.00
2018-06-29T15:35:11.912Z,2.55
2018-06-29T15:37:40.041Z,3.00
2018-06-29T15:40:08.448Z,3.40
2018-06-29T15:42:36.845Z,1.75
2018-06-29T15:45:05.632Z,5.17
2018-06-29T15:47:33.736Z,3.00
2018-06-29T15:50:02.138Z,3.95
2018-06-29T15:52:30.545Z,3.00
2018-06-29T15:54:58.904Z,1.90
2018-06-29T15:57:27.371Z,2.30
2018-06-29T15:59:55.785Z,4.47
2018-06-29T16:02:24.168Z,1.37
2018-06-29T16:04:52.959Z,2.47
2018-06-29T16:07:21.368Z,2.20
2018-06-29T16:09:49.799Z,2.63
2018-06-29T16:12:18.272Z,2.90
2018-06-29T16:14:46.616Z,2.27
2018-06-29T16:17:15.214Z,2.00
2018-06-29T16:19:43.568Z,7.35
2018-06-29T16:22:11.694Z,2.70
2018-06-29T16:24:40.132Z,1.70
2018-06-29T16:27:08.580Z,4.72
2018-06-29T16:29:37.044Z,1.55
2018-06-29T16:32:05.437Z,3.40
2018-06-29T16:34:33.820Z,5.10
2018-06-29T16:37:02.259Z,4.50
2018-06-29T16:39:30.610Z,3.77
2018-06-29T16:41:58.734Z,4.12
2018-06-29T16:44:27.129Z,2.40
2018-06-29T16:46:55.558Z,3.60
2018-06-29T16:49:23.947Z,2.40
2018-06-29T16:51:52.340Z,2.00
2018-06-29T16:54:20.700Z,2.00
2018-06-29T16:56:49.107Z,2.35
2018-06-29T16:59:17.490Z,2.92
2018-06-29T17:01:45.910Z,2.87
2018-06-29T17:04:14.324Z,4.35
2018-06-29T17:06:42.844Z,2.50
2018-06-29T17:09:11.223Z,3.87
2018-06-29T17:11:39.612Z,2.80
2018-06-29T17:14:07.987Z,4.20
2018-06-29T17:16:36.442Z,3.30
2018-06-29T17:19:05.064Z,2.58
2018-06-29T17:21:33.470Z,3.77
2018-06-29T17:24:01.923Z,6.95
2018-06-29T17:26:30.275Z,5.22
2018-06-29T17:28:58.838Z,3.20
2018-06-29T17:31:27.176Z,4.83
2018-06-29T17:33:55.599Z,2.55
2018-06-29T17:36:23.995Z,2.90
2018-06-29T17:38:52.477Z,4.72
2018-06-29T17:41:20.965Z,2.42
2018-06-29T17:43:49.372Z,5.78
2018-06-29T17:46:17.751Z,5.83
2018-06-29T17:48:46.164Z,5.42
2018-06-29T17:51:14.561Z,4.78
2018-06-29T17:53:42.987Z,3.80
2018-06-29T17:56:11.370Z,6.30
2018-06-29T17:58:39.782Z,5.30
2018-06-29T18:01:08.359Z,5.87
2018-06-29T18:03:36.743Z,5.30
2018-06-29T18:06:05.351Z,3.10
2018-06-29T18:08:33.760Z,5.35
2018-06-29T18:11:02.142Z,3.50
2018-06-29T18:13:30.531Z,6.75
2018-06-29T18:15:59.001Z,8.88
2018-06-29T18:18:27.348Z,8.78
2018-06-29T18:20:55.789Z,8.45
2018-06-29T18:23:29.444Z,12.93
2018-06-29T18:25:57.827Z,6.40
2018-06-29T18:28:26.564Z,5.45
2018-06-29T18:30:55.006Z,8.63
2018-06-29T18:33:23.396Z,13.05
2018-06-29T18:35:51.812Z,7.72
2018-06-29T18:38:20.197Z,4.65
2018-06-29T18:40:48.326Z,14.87
2018-06-29T18:43:16.755Z,8.78
2018-06-29T18:45:45.160Z,9.70
2018-06-29T18:48:13.557Z,7.77
2018-06-29T18:50:41.988Z,5.80
2018-06-29T18:53:10.401Z,6.40
2018-06-29T18:55:38.955Z,13.53
2018-06-29T18:58:07.427Z,15.20
2018-06-29T19:00:35.555Z,19.97
2018-06-29T19:03:03.981Z,12.37
2018-06-29T19:05:32.053Z,8.00
2018-06-29T19:08:00.455Z,8.45
2018-06-29T19:10:28.865Z,6.50
2018-06-29T19:12:57.240Z,9.43
2018-06-29T19:15:25.722Z,9.30
2018-06-29T19:17:54.142Z,13.57
2018-06-29T19:20:22.705Z,8.63
2018-06-29T19:22:51.102Z,5.17
2018-06-29T19:25:19.473Z,5.73
2018-06-29T19:27:47.924Z,13.73
2018-06-29T19:30:16.349Z,10.10
2018-06-29T19:32:44.423Z,6.00
2018-06-29T19:35:12.505Z,10.35
2018-06-29T19:37:41.002Z,4.72
2018-06-29T19:40:09.171Z,7.17
2018-06-29T19:42:37.204Z,8.10
2018-06-29T19:45:05.700Z,6.53
2018-06-29T19:47:33.852Z,6.25
2018-06-29T19:50:02.277Z,9.93
2018-06-29T19:52:30.685Z,8.08
2018-06-29T19:54:59.072Z,7.53
2018-06-29T19:57:27.465Z,9.25
2018-06-29T19:59:55.846Z,8.45
2018-06-29T20:02:26.195Z,7.20
2018-06-29T20:04:55.967Z,7.05
2018-06-29T20:07:24.548Z,8.55
2018-06-29T20:09:52.978Z,8.80
2018-06-29T20:12:21.148Z,6.10
2018-06-29T20:14:49.246Z,9.58
2018-06-29T20:17:17.889Z,9.40
2018-06-29T20:19:46.607Z,5.90
2018-06-29T20:22:15.036Z,12.28
2018-06-29T20:24:43.431Z,6.30
2018-06-29T20:27:11.859Z,5.28
2018-06-29T20:29:40.269Z,7.47
2018-06-29T20:32:08.656Z,8.43
2018-06-29T20:34:37.076Z,11.88
2018-06-29T20:37:05.470Z,12.10
2018-06-29T20:39:33.862Z,9.13
2018-06-29T20:42:02.355Z,8.55
2018-06-29T20:44:30.758Z,11.73
2018-06-29T20:46:59.142Z,9.53
2018-06-29T20:49:27.570Z,11.68
2018-06-29T20:51:55.980Z,11.35
2018-06-29T20:54:24.366Z,8.13
2018-06-29T20:56:52.732Z,9.13
2018-06-29T20:59:21.089Z,11.65
2018-06-29T21:01:49.502Z,11.20
2018-06-29T21:04:17.903Z,9.75
2018-06-29T21:06:46.343Z,9.35
2018-06-29T21:09:14.749Z,6.67
2018-06-29T21:11:43.337Z,11.05
2018-06-29T21:14:12.231Z,7.08
2018-06-29T21:16:40.677Z,10.03
2018-06-29T21:19:09.120Z,8.85
2018-06-29T21:21:37.575Z,10.25
2018-06-29T21:24:05.706Z,9.88
2018-06-29T21:26:34.066Z,7.53
2018-06-29T21:29:02.416Z,8.15
2018-06-29T21:31:31.280Z,11.68
2018-06-29T21:33:59.625Z,8.38
2018-06-29T21:36:28.032Z,8.83
2018-06-29T21:38:56.605Z,9.40
2018-06-29T21:41:25.012Z,7.13
2018-06-29T21:43:53.167Z,8.10
2018-06-29T21:46:21.564Z,8.30
2018-06-29T21:48:49.971Z,7.12
2018-06-29T21:51:18.377Z,10.25
2018-06-29T21:53:46.773Z,10.78
2018-06-29T21:56:15.189Z,11.73
2018-06-29T21:58:43.616Z,10.70
2018-06-29T22:01:13.020Z,7.25
2018-06-29T22:03:41.524Z,5.95
2018-06-29T22:06:09.934Z,8.70
2018-06-29T22:08:38.019Z,9.20
2018-06-29T22:11:06.451Z,7.90
2018-06-29T22:13:34.894Z,8.78
2018-06-29T22:16:03.277Z,7.37
2018-06-29T22:18:31.664Z,9.17
2018-06-29T22:21:00.167Z,9.37
2018-06-29T22:23:28.608Z,7.80
2018-06-29T22:25:57.076Z,8.00
2018-06-29T22:28:25.153Z,9.30
2018-06-29T22:30:53.250Z,8.73
2018-06-29T22:33:21.684Z,11.18
2018-06-29T22:35:50.090Z,7.20
2018-06-29T22:38:18.553Z,8.83
2018-06-29T22:40:46.680Z,7.60
2018-06-29T22:43:15.145Z,9.45
2018-06-29T22:45:43.572Z,9.63
2018-06-29T22:48:12.009Z,12.83
2018-06-29T22:50:40.431Z,7.87
2018-06-29T22:53:09.028Z,14.23
2018-06-29T22:55:37.590Z,8.45
2018-06-29T22:58:05.996Z,10.70
2018-06-29T23:00:34.402Z,9.23
2018-06-29T23:03:06.478Z,13.40
2018-06-29T23:05:34.999Z,15.05
2018-06-29T23:08:03.520Z,12.58
2018-06-29T23:10:31.933Z,10.43
2018-06-29T23:13:00.300Z,7.08
2018-06-29T23:15:28.753Z,9.83
2018-06-29T23:17:57.324Z,10.80
2018-06-29T23:20:25.883Z,12.43
2018-06-29T23:22:54.380Z,11.28
2018-06-29T23:25:23.479Z,9.70
2018-06-29T23:27:51.572Z,9.05
2018-06-29T23:30:19.982Z,11.17
2018-06-29T23:32:48.423Z,12.10
2018-06-29T23:35:16.875Z,9.87
2018-06-29T23:37:45.359Z,11.83
2018-06-29T23:40:13.827Z,13.32
2018-06-29T23:42:42.221Z,12.25
2018-06-29T23:45:10.672Z,10.10
2018-06-29T23:47:39.065Z,10.40
2018-06-29T23:50:07.488Z,11.03
2018-06-29T23:52:35.861Z,11.28
2018-06-29T23:55:04.319Z,13.88
2018-06-29T23:57:32.732Z,9.50
